Time;durP1;ratioP1;P1;durP2;ratioP2;P2;SDS_P1;SDS_P2;PMS_P1;PMS_P2;Temp;Humidity;BMP_temperature;BMP_pressure;BME280_temperature;BME280_humidity;BME280_pressure;Samples;Min_cycle;Max_cycle;Signal;HPM_P1;HPM_P2
2021/10/28 00:12:13;;;;;;;11.77;6.70;;;;;;;;;;4974049;28;20130;-75
2021/10/28 00:14:42;;;;;;;15.90;6.47;;;;;;;;;;4973602;28;20507;-76
2021/10/28 00:17:12;;;;;;;11.10;5.72;;;;;;;;;;4973653;28;20053;-75
2021/10/28 00:19:41;;;;;;;13.38;6.40;;;;;;;;;;4956513;28;20043;-75
2021/10/28 00:22:12;;;;;;;13.98;6.30;;;;;;;;;;4959948;28;20047;-75
2021/10/28 00:24:40;;;;;;;14.23;5.90;;;;;;;;;;4959589;28;20408;-74
2021/10/28 00:27:09;;;;;;;10.55;5.68;;;;;;;;;;4977415;28;20042;-76
2021/10/28 00:29:36;;;;;;;15.60;6.50;;;;;;;;;;4977091;28;20070;-76
2021/10/28 00:32:04;;;;;;;18.55;6.32;;;;;;;;;;4976956;28;20031;-75
2021/10/28 00:34:32;;;;;;;18.60;6.63;;;;;;;;;;4958562;28;20511;-74
2021/10/28 00:37:02;;;;;;;15.63;5.97;;;;;;;;;;4981075;28;20054;-76
2021/10/28 00:39:30;;;;;;;15.63;6.68;;;;;;;;;;4985047;28;20068;-75
2021/10/28 00:42:00;;;;;;;19.27;6.53;;;;;;;;;;4982968;28;20035;-74
2021/10/28 00:44:28;;;;;;;19.27;6.00;;;;;;;;;;4985411;28;20040;-74
2021/10/28 00:46:56;;;;;;;17.92;5.82;;;;;;;;;;4986712;28;20038;-74
2021/10/28 00:49:24;;;;;;;15.68;6.60;;;;;;;;;;4968182;28;20047;-74
2021/10/28 00:51:52;;;;;;;11.98;6.03;;;;;;;;;;4984790;28;20130;-74
2021/10/28 00:54:22;;;;;;;12.90;5.90;;;;;;;;;;4986300;28;20038;-75
2021/10/28 00:56:49;;;;;;;13.43;6.05;;;;;;;;;;4969349;28;20073;-74
2021/10/28 00:59:17;;;;;;;10.48;5.78;;;;;;;;;;4986783;28;20054;-75
2021/10/28 01:01:44;;;;;;;16.13;5.95;;;;;;;;;;4970470;28;20153;-75
2021/10/28 01:04:12;;;;;;;16.60;6.20;;;;;;;;;;4995319;28;20113;-74
2021/10/28 01:06:40;;;;;;;22.33;6.75;;;;;;;;;;4996102;28;20034;-75
2021/10/28 01:09:08;;;;;;;18.33;6.15;;;;;;;;;;4977678;28;20065;-74
2021/10/28 01:11:36;;;;;;;15.10;5.53;;;;;;;;;;4961773;28;20049;-74
2021/10/28 01:14:03;;;;;;;14.48;5.90;;;;;;;;;;4995392;28;20492;-75
2021/10/28 01:16:31;;;;;;;21.13;6.15;;;;;;;;;;4995824;28;20130;-75
2021/10/28 01:19:02;;;;;;;18.75;5.80;;;;;;;;;;4995105;28;20054;-75
2021/10/28 01:21:29;;;;;;;19.73;6.32;;;;;;;;;;4970217;28;20503;-75
2021/10/28 01:23:57;;;;;;;19.77;5.50;;;;;;;;;;4974480;28;20049;-75
2021/10/28 01:26:25;;;;;;;13.98;5.93;;;;;;;;;;4958335;28;20047;-75
2021/10/28 01:28:57;;;;;;;19.23;6.07;;;;;;;;;;4975853;28;20117;-74
2021/10/28 01:31:26;;;;;;;17.42;6.03;;;;;;;;;;4974604;28;20049;-74
2021/10/28 01:33:54;;;;;;;17.67;7.30;;;;;;;;;;4975282;28;20042;-75
2021/10/28 01:36:23;;;;;;;16.83;5.70;;;;;;;;;;4975477;28;20074;-73
2021/10/28 01:38:52;;;;;;;19.40;6.63;;;;;;;;;;4975904;28;20050;-74
2021/10/28 01:41:20;;;;;;;17.58;5.90;;;;;;;;;;4975727;28;20051;-74
2021/10/28 01:43:49;;;;;;;18.58;5.88;;;;;;;;;;4975730;28;20472;-75
2021/10/28 01:46:16;;;;;;;14.57;5.50;;;;;;;;;;4975612;28;20497;-75
2021/10/28 01:48:45;;;;;;;21.05;6.40;;;;;;;;;;4975424;28;20122;-75
2021/10/28 01:51:13;;;;;;;19.00;6.60;;;;;;;;;;4975790;28;20057;-75
2021/10/28 01:53:45;;;;;;;12.82;5.70;;;;;;;;;;4975650;28;20519;-74
2021/10/28 01:56:13;;;;;;;19.17;6.03;;;;;;;;;;4974859;28;20134;-74
2021/10/28 01:58:40;;;;;;;14.43;6.25;;;;;;;;;;4975439;28;20514;-75
2021/10/28 02:01:08;;;;;;;14.10;5.47;;;;;;;;;;4974980;28;20133;-74
2021/10/28 02:03:36;;;;;;;17.20;5.80;;;;;;;;;;4957796;28;20090;-76
2021/10/28 02:06:05;;;;;;;13.85;5.95;;;;;;;;;;4958033;28;20500;-76
2021/10/28 02:08:34;;;;;;;15.52;6.15;;;;;;;;;;4975541;28;20049;-75
2021/10/28 02:11:02;;;;;;;15.40;6.18;;;;;;;;;;4975179;28;20061;-73
2021/10/28 02:13:30;;;;;;;12.60;5.55;;;;;;;;;;4957711;28;20053;-75
2021/10/28 02:15:57;;;;;;;17.63;5.95;;;;;;;;;;4974698;28;20412;-75
2021/10/28 02:18:25;;;;;;;16.38;5.63;;;;;;;;;;4974924;28;20126;-73
2021/10/28 02:20:53;;;;;;;14.50;6.15;;;;;;;;;;4957585;28;20042;-75
2021/10/28 02:23:20;;;;;;;13.25;5.97;;;;;;;;;;4957747;28;20046;-75
2021/10/28 02:25:48;;;;;;;11.63;5.50;;;;;;;;;;4974577;28;20071;-74
2021/10/28 02:28:17;;;;;;;13.70;5.55;;;;;;;;;;4957884;28;20039;-74
2021/10/28 02:30:44;;;;;;;14.32;5.65;;;;;;;;;;4974488;28;20046;-74
2021/10/28 02:33:13;;;;;;;12.63;6.47;;;;;;;;;;4974337;28;20042;-74
2021/10/28 02:35:40;;;;;;;13.55;5.82;;;;;;;;;;4974745;28;20549;-75
2021/10/28 02:38:09;;;;;;;14.00;5.80;;;;;;;;;;4974649;28;20043;-75
2021/10/28 02:40:37;;;;;;;18.90;6.55;;;;;;;;;;4974385;28;20479;-75
2021/10/28 02:43:05;;;;;;;16.20;5.88;;;;;;;;;;4974617;28;20118;-75
2021/10/28 02:45:33;;;;;;;14.75;5.63;;;;;;;;;;4974148;28;20069;-73
2021/10/28 02:48:01;;;;;;;12.75;5.30;;;;;;;;;;4974223;28;20065;-75
2021/10/28 02:50:28;;;;;;;16.70;5.53;;;;;;;;;;4974478;28;20053;-73
2021/10/28 02:52:56;;;;;;;12.45;5.57;;;;;;;;;;4974635;28;20097;-74
2021/10/28 02:55:25;;;;;;;12.38;6.10;;;;;;;;;;4974506;28;20061;-75
2021/10/28 02:57:52;;;;;;;13.75;5.95;;;;;;;;;;4956989;28;20444;-75
2021/10/28 03:00:22;;;;;;;9.95;5.38;;;;;;;;;;4973804;28;20053;-75
2021/10/28 03:02:49;;;;;;;12.02;5.35;;;;;;;;;;4956959;28;20408;-74
2021/10/28 03:05:17;;;;;;;14.82;5.45;;;;;;;;;;4974337;28;20096;-75
2021/10/28 03:07:45;;;;;;;12.60;5.38;;;;;;;;;;4974494;28;20039;-74
2021/10/28 03:10:15;;;;;;;16.20;5.18;;;;;;;;;;4974014;28;20121;-75
2021/10/28 03:12:44;;;;;;;18.02;5.40;;;;;;;;;;4974302;28;20045;-74
2021/10/28 03:15:13;;;;;;;11.32;4.82;;;;;;;;;;4973595;28;20130;-74
2021/10/28 03:25:37;;;;;;;18.10;6.15;;;;;;;;;;4973966;28;20051;-74
2021/10/28 03:28:12;;;;;;;10.30;5.18;;;;;;;;;;4957962;28;20074;-74
2021/10/28 03:30:40;;;;;;;10.73;5.03;;;;;;;;;;4974333;28;20047;-74
2021/10/28 03:33:10;;;;;;;17.50;5.18;;;;;;;;;;4957122;28;20055;-73
2021/10/28 03:35:39;;;;;;;21.90;5.90;;;;;;;;;;4974027;28;20050;-74
2021/10/28 03:38:27;;;;;;;15.98;5.40;;;;;;;;;;4973882;28;20039;-72
2021/10/28 04:29:19;;;;;;;13.05;5.68;;;;;;;;;;4977379;28;20049;-74
2021/10/28 04:31:46;;;;;;;13.45;5.72;;;;;;;;;;4959844;28;20051;-74
2021/10/28 04:34:14;;;;;;;14.10;6.07;;;;;;;;;;4976522;28;20138;-74
2021/10/28 04:36:42;;;;;;;19.17;6.97;;;;;;;;;;4943551;28;20051;-74
2021/10/28 04:39:12;;;;;;;13.43;5.95;;;;;;;;;;4959943;28;20047;-74
2021/10/28 04:41:40;;;;;;;15.30;6.15;;;;;;;;;;4976298;28;20118;-74
2021/10/28 04:44:09;;;;;;;13.48;5.60;;;;;;;;;;4943634;28;20043;-72
2021/10/28 04:46:37;;;;;;;10.98;5.63;;;;;;;;;;4943298;28;20051;-73
2021/10/28 04:49:05;;;;;;;17.98;6.03;;;;;;;;;;4976613;28;20101;-74
2021/10/28 04:51:34;;;;;;;24.15;6.82;;;;;;;;;;4977085;28;20106;-74
2021/10/28 04:54:01;;;;;;;16.13;5.30;;;;;;;;;;4976876;28;20060;-74
2021/10/28 04:56:29;;;;;;;13.07;4.90;;;;;;;;;;4975781;28;20046;-74
2021/10/28 04:58:57;;;;;;;18.17;5.13;;;;;;;;;;4976418;28;20047;-74
2021/10/28 05:01:25;;;;;;;14.68;5.28;;;;;;;;;;4958937;28;20030;-72
2021/10/28 05:03:54;;;;;;;17.65;5.45;;;;;;;;;;4959278;28;20420;-74
2021/10/28 05:06:21;;;;;;;11.60;4.43;;;;;;;;;;4976104;28;20049;-74
2021/10/28 05:08:49;;;;;;;20.42;5.78;;;;;;;;;;4958681;28;20051;-74
2021/10/28 05:11:18;;;;;;;16.52;5.60;;;;;;;;;;4976482;28;20453;-73
2021/10/28 05:13:47;;;;;;;14.73;5.80;;;;;;;;;;4976260;28;20070;-73
2021/10/28 05:16:14;;;;;;;16.23;5.53;;;;;;;;;;4975869;28;20078;-74
2021/10/28 05:18:42;;;;;;;15.10;5.03;;;;;;;;;;4976090;28;20043;-73
2021/10/28 05:21:11;;;;;;;14.52;5.30;;;;;;;;;;4975782;28;20127;-74
2021/10/28 05:23:39;;;;;;;11.45;5.32;;;;;;;;;;4958381;28;20073;-74
2021/10/28 05:26:07;;;;;;;15.85;5.70;;;;;;;;;;4975609;28;20082;-74
2021/10/28 05:28:35;;;;;;;14.30;5.32;;;;;;;;;;4958869;28;20046;-73
2021/10/28 05:31:03;;;;;;;17.60;6.13;;;;;;;;;;4976301;28;20524;-76
2021/10/28 05:33:30;;;;;;;11.98;5.10;;;;;;;;;;4975317;28;20038;-74
2021/10/28 05:35:59;;;;;;;14.65;6.57;;;;;;;;;;4958427;28;20043;-74
2021/10/28 05:38:27;;;;;;;14.88;4.80;;;;;;;;;;4975096;28;20042;-73
2021/10/28 05:40:56;;;;;;;11.88;5.28;;;;;;;;;;4975307;28;20039;-73
2021/10/28 05:43:23;;;;;;;12.43;5.30;;;;;;;;;;4958338;28;20049;-74
2021/10/28 05:45:52;;;;;;;15.40;4.88;;;;;;;;;;4958281;28;20043;-74
2021/10/28 05:48:20;;;;;;;13.38;5.22;;;;;;;;;;4975756;28;20045;-73
2021/10/28 05:50:48;;;;;;;11.60;4.97;;;;;;;;;;4975869;28;20046;-74
2021/10/28 05:53:17;;;;;;;17.58;5.20;;;;;;;;;;4975179;28;20047;-74
2021/10/28 05:55:48;;;;;;;11.05;5.45;;;;;;;;;;4975368;28;20046;-74
2021/10/28 05:58:15;;;;;;;20.63;5.45;;;;;;;;;;4975315;28;20081;-73
2021/10/28 06:00:43;;;;;;;11.23;5.20;;;;;;;;;;4975421;28;20551;-72
2021/10/28 06:03:12;;;;;;;14.48;4.90;;;;;;;;;;4975269;28;20039;-74
2021/10/28 06:05:41;;;;;;;14.98;5.50;;;;;;;;;;4957808;28;20043;-73
2021/10/28 06:08:09;;;;;;;15.43;4.82;;;;;;;;;;4974896;28;20046;-74
2021/10/28 06:10:36;;;;;;;15.27;4.80;;;;;;;;;;4958266;28;20042;-75
2021/10/28 06:13:07;;;;;;;11.63;5.55;;;;;;;;;;4974904;28;20039;-74
2021/10/28 06:15:35;;;;;;;14.30;5.13;;;;;;;;;;4975160;28;20047;-77
2021/10/28 06:18:35;;;;;;;11.38;4.72;;;;;;;;;;4957465;28;20507;-78
2021/10/28 06:21:00;;;;;;;15.32;4.90;;;;;;;;;;4974804;28;20074;-77
2021/10/28 06:23:28;;;;;;;11.77;4.78;;;;;;;;;;4974742;28;20045;-76
2021/10/28 06:25:57;;;;;;;11.65;5.40;;;;;;;;;;4957826;28;20047;-76
2021/10/28 06:28:25;;;;;;;15.80;5.10;;;;;;;;;;4975007;28;20039;-75
2021/10/28 06:30:53;;;;;;;17.70;5.10;;;;;;;;;;4958326;28;20121;-77
2021/10/28 06:33:25;;;;;;;18.80;6.07;;;;;;;;;;4974758;28;20039;-75
2021/10/28 06:35:55;;;;;;;19.85;6.32;;;;;;;;;;4957406;28;20058;-77
2021/10/28 06:38:23;;;;;;;13.27;4.90;;;;;;;;;;4975077;28;20050;-76
2021/10/28 06:40:51;;;;;;;12.70;4.80;;;;;;;;;;4957859;28;20121;-75
2021/10/28 06:43:19;;;;;;;58.20;10.52;;;;;;;;;;4942256;28;20050;-77
2021/10/28 06:45:46;;;;;;;25.13;6.95;;;;;;;;;;4957965;28;20481;-77
2021/10/28 06:48:14;;;;;;;15.38;4.88;;;;;;;;;;4974798;28;20050;-76
2021/10/28 06:50:57;;;;;;;26.88;7.47;;;;;;;;;;4956802;28;20039;-75
2021/10/28 06:53:28;;;;;;;7.40;4.90;;;;;;;;;;4958607;28;20057;-76
2021/10/28 07:04:32;;;;;;;14.70;5.10;;;;;;;;;;4991933;28;20724;-78
2021/10/28 07:06:59;;;;;;;10.60;4.80;;;;;;;;;;4975992;28;20070;-77
2021/10/28 07:09:36;;;;;;;10.65;5.07;;;;;;;;;;4993631;28;20073;-76
2021/10/28 07:12:42;;;;;;;12.07;4.57;;;;;;;;;;4975363;28;20077;-78
2021/10/28 07:15:07;;;;;;;9.73;4.32;;;;;;;;;;4972475;28;20046;-77
2021/10/28 07:20:46;;;;;;;9.18;4.80;;;;;;;;;;4993060;28;20050;-76
2021/10/28 07:26:04;;;;;;;12.02;4.35;;;;;;;;;;4995580;28;20515;-76
2021/10/28 07:28:44;;;;;;;10.38;4.65;;;;;;;;;;4992224;28;20105;-76
2021/10/28 08:04:49;;;;;;;10.80;4.50;;;;;;;;;;4996917;28;20070;-73
2021/10/28 08:13:28;;;;;;;9.93;3.85;;;;;;;;;;4996395;28;20395;-73
2021/10/28 08:17:09;;;;;;;10.50;4.78;;;;;;;;;;4996579;28;20137;-72
2021/10/28 08:19:48;;;;;;;12.25;4.45;;;;;;;;;;4996024;28;20038;-72
2021/10/28 08:22:32;;;;;;;10.30;4.03;;;;;;;;;;4996250;28;20038;-74
2021/10/28 08:30:18;;;;;;;10.88;4.80;;;;;;;;;;4938659;29;20087;-72
2021/10/28 08:32:46;;;;;;;12.82;4.25;;;;;;;;;;4941609;29;20132;-72
2021/10/28 08:35:34;;;;;;;11.15;4.20;;;;;;;;;;4943439;29;20046;-75
2021/10/28 08:38:02;;;;;;;8.00;3.85;;;;;;;;;;4957416;29;20047;-72
2021/10/28 08:40:31;;;;;;;11.32;3.90;;;;;;;;;;4956972;28;20044;-72
2021/10/28 08:43:04;;;;;;;9.55;4.15;;;;;;;;;;4957395;29;20138;-74
2021/10/28 08:45:36;;;;;;;15.20;4.50;;;;;;;;;;4957300;29;20106;-75
2021/10/28 08:48:08;;;;;;;10.57;4.03;;;;;;;;;;4956953;29;20074;-75
2021/10/28 08:56:08;;;;;;;11.90;4.10;;;;;;;;;;4905147;29;20139;-75
2021/10/28 08:58:58;;;;;;;9.13;3.97;;;;;;;;;;4956481;29;20067;-74
2021/10/28 09:19:32;;;;;;;7.95;3.80;;;;;;;;;;4956590;29;20118;-72
2021/10/28 09:24:36;;;;;;;9.70;3.63;;;;;;;;;;4956568;29;20500;-75
2021/10/28 09:29:49;;;;;;;9.65;4.22;;;;;;;;;;4951613;29;20042;-74
2021/10/28 09:51:38;;;;;;;;;;;;;;;;;;4954089;28;20042;-75
2021/10/28 09:54:31;;;;;;;11.55;5.00;;;;;;;;;;4953114;29;19933;-74
2021/10/28 09:59:49;;;;;;;12.98;5.10;;;;;;;;;;4953498;29;20600;-72
2021/10/28 10:02:32;;;;;;;9.85;5.10;;;;;;;;;;4953320;29;20054;-71
2021/10/28 10:05:05;;;;;;;13.32;5.28;;;;;;;;;;4950446;29;20047;-77
2021/10/28 10:07:38;;;;;;;9.35;5.00;;;;;;;;;;4952695;29;20150;-72
2021/10/28 10:10:07;;;;;;;13.07;5.82;;;;;;;;;;4934371;29;20047;-72
2021/10/28 10:12:38;;;;;;;13.13;5.70;;;;;;;;;;4934454;29;20059;-72
2021/10/28 10:15:06;;;;;;;15.50;6.13;;;;;;;;;;4949637;29;20049;-72
2021/10/28 10:17:34;;;;;;;19.20;5.90;;;;;;;;;;4916641;29;20048;-72
2021/10/28 10:20:08;;;;;;;13.30;5.75;;;;;;;;;;4933435;29;20062;-72
2021/10/28 10:23:19;;;;;;;10.30;5.63;;;;;;;;;;4933186;29;20106;-73
2021/10/28 12:45:00;;;;;;;11.65;4.90;;;;;;;;;;4956715;29;20122;-72
2021/10/28 12:50:39;;;;;;;11.82;5.20;;;;;;;;;;4956610;29;20243;-72
2021/10/28 13:49:16;;;;;;;13.27;5.40;;;;;;;;;;4955511;29;20122;-72
2021/10/28 15:02:33;;;;;;;12.65;4.25;;;;;;;;;;4954418;29;20055;-76
2021/10/28 15:30:16;;;;;;;7.45;4.05;;;;;;;;;;4937382;29;20044;-72
2021/10/28 15:35:43;;;;;;;7.70;3.55;;;;;;;;;;4936581;29;20051;-76
2021/10/28 16:22:10;;;;;;;11.43;4.63;;;;;;;;;;4953865;29;20050;-72
2021/10/28 16:24:38;;;;;;;15.90;4.80;;;;;;;;;;4938088;29;20775;-74
2021/10/28 16:27:11;;;;;;;13.20;4.30;;;;;;;;;;4954889;29;20047;-74
2021/10/28 16:29:38;;;;;;;11.25;4.05;;;;;;;;;;4937958;29;20051;-75
2021/10/28 16:32:06;;;;;;;18.10;4.90;;;;;;;;;;4955045;29;20043;-71
2021/10/28 16:34:34;;;;;;;10.52;4.20;;;;;;;;;;4932764;29;20056;-74
2021/10/28 16:37:01;;;;;;;11.40;4.50;;;;;;;;;;4918771;29;20142;-72
2021/10/28 16:39:33;;;;;;;10.27;4.32;;;;;;;;;;4919494;29;20095;-71
2021/10/28 16:42:00;;;;;;;13.77;4.00;;;;;;;;;;4935483;29;20107;-71
2021/10/28 16:44:28;;;;;;;10.98;4.30;;;;;;;;;;4918886;29;20048;-71
2021/10/28 16:46:56;;;;;;;9.95;4.10;;;;;;;;;;4935793;29;20458;-76
2021/10/28 16:49:24;;;;;;;10.63;4.18;;;;;;;;;;4935900;29;20410;-75
2021/10/28 16:51:54;;;;;;;16.83;4.55;;;;;;;;;;4935351;29;20052;-71
2021/10/28 16:54:21;;;;;;;12.85;4.30;;;;;;;;;;4945306;29;20048;-75
2021/10/28 16:56:49;;;;;;;13.65;4.53;;;;;;;;;;4929681;29;20472;-71
2021/10/28 16:59:17;;;;;;;11.13;4.18;;;;;;;;;;4947577;29;20044;-74
2021/10/28 17:01:45;;;;;;;10.85;4.30;;;;;;;;;;4945245;28;20577;-81
2021/10/28 17:04:13;;;;;;;10.77;3.85;;;;;;;;;;4945428;29;20047;-81
2021/10/28 17:06:41;;;;;;;10.82;3.95;;;;;;;;;;4928128;29;20134;-79
2021/10/28 17:09:09;;;;;;;13.35;3.70;;;;;;;;;;4945524;29;20035;-78
2021/10/28 17:11:38;;;;;;;11.52;4.53;;;;;;;;;;4946172;29;20386;-74
2021/10/28 17:14:06;;;;;;;10.80;4.40;;;;;;;;;;4945026;29;20035;-75
2021/10/28 17:16:36;;;;;;;10.45;4.30;;;;;;;;;;4928491;29;20505;-79
2021/10/28 17:19:05;;;;;;;10.57;4.43;;;;;;;;;;4945280;29;20453;-75
2021/10/28 17:21:34;;;;;;;6.60;3.75;;;;;;;;;;4928703;29;20047;-81
2021/10/28 17:24:04;;;;;;;11.55;4.18;;;;;;;;;;4947061;29;20043;-74
2021/10/28 17:26:32;;;;;;;10.52;4.63;;;;;;;;;;4945489;29;20054;-80
2021/10/28 17:29:04;;;;;;;12.38;3.60;;;;;;;;;;4943812;29;20055;-78
2021/10/28 17:31:33;;;;;;;8.98;4.18;;;;;;;;;;4944723;29;20489;-74
2021/10/28 17:34:03;;;;;;;14.02;4.45;;;;;;;;;;4929377;29;20118;-77
2021/10/28 17:36:42;;;;;;;18.25;4.68;;;;;;;;;;4946937;29;20040;-74
2021/10/28 17:39:09;;;;;;;7.25;4.03;;;;;;;;;;4945659;29;20032;-74
2021/10/28 17:41:37;;;;;;;16.08;4.88;;;;;;;;;;4944720;29;20523;-73
2021/10/28 17:44:08;;;;;;;11.55;4.22;;;;;;;;;;4945764;29;20043;-74
2021/10/28 17:46:35;;;;;;;13.57;4.60;;;;;;;;;;4946573;29;20043;-74
2021/10/28 17:49:03;;;;;;;12.93;4.60;;;;;;;;;;4912471;29;20040;-80
2021/10/28 17:51:35;;;;;;;11.07;4.43;;;;;;;;;;4928005;29;20039;-74
2021/10/28 17:54:09;;;;;;;13.77;4.80;;;;;;;;;;4945075;29;20505;-80
2021/10/28 17:56:38;;;;;;;12.73;4.32;;;;;;;;;;4927257;29;20127;-75
2021/10/28 17:59:07;;;;;;;12.82;4.65;;;;;;;;;;4945734;29;20046;-74
2021/10/28 18:01:34;;;;;;;9.82;3.60;;;;;;;;;;4946450;29;20043;-79
2021/10/28 18:04:03;;;;;;;13.38;4.50;;;;;;;;;;4944591;29;20044;-80
2021/10/28 18:06:33;;;;;;;12.50;4.40;;;;;;;;;;4945074;29;20035;-78
2021/10/28 18:09:01;;;;;;;11.05;4.18;;;;;;;;;;4927677;29;20520;-78
2021/10/28 18:11:29;;;;;;;6.70;4.18;;;;;;;;;;4927903;29;20051;-77
2021/10/28 18:13:59;;;;;;;11.18;4.22;;;;;;;;;;4945453;28;20045;-73
2021/10/28 18:16:30;;;;;;;14.10;4.45;;;;;;;;;;4944954;29;20044;-73
2021/10/28 18:19:01;;;;;;;9.75;4.30;;;;;;;;;;4943901;29;20036;-79
2021/10/28 18:21:29;;;;;;;12.82;4.05;;;;;;;;;;4927486;29;20054;-73
2021/10/28 18:24:00;;;;;;;8.02;4.13;;;;;;;;;;4945607;29;20046;-74
2021/10/28 18:26:28;;;;;;;10.35;3.78;;;;;;;;;;4924189;29;20110;-79
2021/10/28 18:28:56;;;;;;;7.95;3.95;;;;;;;;;;4924677;29;20044;-78
2021/10/28 18:31:29;;;;;;;10.05;4.15;;;;;;;;;;4924401;29;20039;-77
2021/10/28 18:33:57;;;;;;;15.05;4.40;;;;;;;;;;4925740;29;20118;-79
2021/10/28 18:36:26;;;;;;;10.50;4.30;;;;;;;;;;4924652;29;20063;-78
2021/10/28 18:38:54;;;;;;;13.23;5.00;;;;;;;;;;4916713;29;20143;-79
2021/10/28 18:41:25;;;;;;;20.75;5.10;;;;;;;;;;4934071;29;20051;-74
2021/10/28 18:43:53;;;;;;;14.00;5.00;;;;;;;;;;4934392;29;20078;-78
2021/10/28 18:46:24;;;;;;;15.07;4.97;;;;;;;;;;4933933;29;20056;-78
2021/10/28 18:48:57;;;;;;;16.92;4.65;;;;;;;;;;4933822;29;20059;-74
2021/10/28 18:51:26;;;;;;;11.07;4.57;;;;;;;;;;4934789;29;20052;-78
2021/10/28 18:53:54;;;;;;;12.25;4.50;;;;;;;;;;4933685;29;20047;-74
2021/10/28 18:56:21;;;;;;;9.95;4.07;;;;;;;;;;4933278;29;20126;-74
2021/10/28 18:58:53;;;;;;;18.27;5.07;;;;;;;;;;4935489;29;20131;-74
2021/10/28 19:01:25;;;;;;;12.25;5.05;;;;;;;;;;4935339;29;20044;-74
2021/10/28 19:03:54;;;;;;;10.45;4.50;;;;;;;;;;4935345;29;20043;-78
2021/10/28 19:06:26;;;;;;;14.73;4.38;;;;;;;;;;4934255;29;20055;-78
2021/10/28 19:08:53;;;;;;;17.02;4.50;;;;;;;;;;4935320;29;20134;-78
2021/10/28 19:11:26;;;;;;;16.33;4.78;;;;;;;;;;4933863;29;20115;-74
2021/10/28 19:13:55;;;;;;;13.15;4.20;;;;;;;;;;4933659;29;20098;-78
2021/10/28 19:16:25;;;;;;;6.22;3.20;;;;;;;;;;4934132;29;20060;-79
2021/10/28 19:18:54;;;;;;;5.68;2.97;;;;;;;;;;4934723;29;20040;-74
2021/10/28 19:21:25;;;;;;;10.63;3.80;;;;;;;;;;4934143;29;20065;-74
2021/10/28 19:23:54;;;;;;;8.50;3.97;;;;;;;;;;4934004;29;20134;-74
2021/10/28 19:26:23;;;;;;;12.82;4.72;;;;;;;;;;4946894;29;20055;-74
2021/10/28 19:28:54;;;;;;;13.70;4.78;;;;;;;;;;4954438;29;20053;-74
2021/10/28 19:31:28;;;;;;;12.93;4.93;;;;;;;;;;4947410;29;20071;-78
2021/10/28 19:34:02;;;;;;;13.10;5.13;;;;;;;;;;4940265;29;20043;-75
2021/10/28 19:36:36;;;;;;;14.07;6.13;;;;;;;;;;4933023;29;20051;-74
2021/10/28 19:47:13;;;;;;;12.95;5.43;;;;;;;;;;4951998;29;20479;-75
2021/10/28 19:49:45;;;;;;;14.50;4.75;;;;;;;;;;4943869;29;20048;-75
2021/10/28 19:52:14;;;;;;;13.88;4.93;;;;;;;;;;4933111;29;20075;-79
2021/10/28 19:54:48;;;;;;;11.48;4.65;;;;;;;;;;4932737;29;20071;-77
2021/10/28 19:57:20;;;;;;;10.80;4.45;;;;;;;;;;4933156;29;20047;-74
2021/10/28 19:59:55;;;;;;;11.63;4.40;;;;;;;;;;4933241;29;20115;-77
2021/10/28 20:14:09;;;;;;;10.02;4.10;;;;;;;;;;4944234;29;20524;-74
2021/10/28 20:22:14;;;;;;;11.60;4.30;;;;;;;;;;4952065;29;20051;-75
2021/10/28 20:24:45;;;;;;;10.65;4.18;;;;;;;;;;5034898;23;20054;-77
2021/10/28 20:27:18;;;;;;;9.32;4.30;;;;;;;;;;5009450;28;20505;-74
2021/10/28 20:29:46;;;;;;;8.05;3.83;;;;;;;;;;5008401;28;20061;-74
2021/10/28 20:32:17;;;;;;;12.57;4.13;;;;;;;;;;5009934;28;20042;-74
2021/10/28 20:34:52;;;;;;;10.80;4.40;;;;;;;;;;4989375;28;20203;-77
2021/10/28 20:37:21;;;;;;;8.25;4.38;;;;;;;;;;4990545;28;20072;-77
2021/10/28 20:39:49;;;;;;;9.48;5.10;;;;;;;;;;4986520;28;20127;-77
2021/10/28 20:42:21;;;;;;;8.35;4.13;;;;;;;;;;4990608;28;20403;-77
2021/10/28 20:44:52;;;;;;;12.65;4.50;;;;;;;;;;4993886;28;20407;-77
2021/10/28 20:47:21;;;;;;;14.90;3.80;;;;;;;;;;4993795;28;20089;-77
2021/10/28 20:49:48;;;;;;;18.58;4.30;;;;;;;;;;4994091;28;20042;-78
2021/10/28 20:52:16;;;;;;;11.20;3.83;;;;;;;;;;4993962;28;20042;-78
2021/10/28 20:54:46;;;;;;;12.43;4.68;;;;;;;;;;4993607;28;20046;-74
2021/10/28 20:57:14;;;;;;;12.65;4.40;;;;;;;;;;4994255;28;20046;-77
2021/10/28 20:59:42;;;;;;;15.98;4.32;;;;;;;;;;4994249;28;20038;-77
2021/10/28 21:02:10;;;;;;;10.93;3.97;;;;;;;;;;4994155;28;20034;-77
2021/10/28 21:04:37;;;;;;;16.35;5.50;;;;;;;;;;4992800;28;20057;-77
2021/10/28 21:07:05;;;;;;;9.77;3.45;;;;;;;;;;4994050;28;20046;-76
2021/10/28 21:09:32;;;;;;;11.35;3.85;;;;;;;;;;4990047;28;20030;-77
2021/10/28 21:12:01;;;;;;;9.73;3.47;;;;;;;;;;4992600;28;20101;-74
2021/10/28 21:14:29;;;;;;;9.20;3.63;;;;;;;;;;4993861;28;20118;-74
2021/10/28 21:16:58;;;;;;;9.45;3.95;;;;;;;;;;4993586;28;20089;-74
2021/10/28 21:19:26;;;;;;;9.50;3.90;;;;;;;;;;4993652;28;20050;-77
2021/10/28 21:21:54;;;;;;;11.68;4.18;;;;;;;;;;4993660;28;20042;-77
2021/10/28 21:24:22;;;;;;;8.60;3.75;;;;;;;;;;4993336;28;20058;-78
2021/10/28 21:26:59;;;;;;;8.45;3.20;;;;;;;;;;4980094;28;20130;-74
2021/10/28 21:29:27;;;;;;;10.85;3.97;;;;;;;;;;4956654;28;20072;-74
2021/10/28 21:31:56;;;;;;;11.68;4.15;;;;;;;;;;4973942;28;20058;-73
2021/10/28 21:34:23;;;;;;;8.38;3.85;;;;;;;;;;4974143;28;20065;-77
2021/10/28 21:36:51;;;;;;;12.40;3.88;;;;;;;;;;4973983;28;20051;-73
2021/10/28 21:39:19;;;;;;;7.07;4.07;;;;;;;;;;4973783;28;20439;-77
2021/10/28 21:41:47;;;;;;;8.98;3.72;;;;;;;;;;4973545;28;20047;-73
2021/10/28 21:44:17;;;;;;;9.68;3.72;;;;;;;;;;4973567;28;20047;-73
2021/10/28 21:46:45;;;;;;;10.02;3.28;;;;;;;;;;4973521;28;20043;-74
2021/10/28 21:49:12;;;;;;;6.60;3.30;;;;;;;;;;4955200;28;20099;-73
2021/10/28 21:51:40;;;;;;;12.15;3.20;;;;;;;;;;4973759;28;20050;-76
2021/10/28 21:54:27;;;;;;;6.85;3.00;;;;;;;;;;4956171;28;20161;-73
2021/10/28 21:56:59;;;;;;;8.82;2.70;;;;;;;;;;4973492;28;20057;-73
2021/10/28 21:59:52;;;;;;;9.27;2.72;;;;;;;;;;4973414;28;20492;-74
2021/10/28 22:24:56;;;;;;;6.20;2.55;;;;;;;;;;4922246;29;20426;-74
2021/10/28 22:27:25;;;;;;;3.10;2.55;;;;;;;;;;4932517;29;20062;-76
2021/10/28 22:29:55;;;;;;;7.82;2.53;;;;;;;;;;4916164;29;20140;-74
2021/10/28 22:32:43;;;;;;;5.38;2.63;;;;;;;;;;4916316;29;20482;-74
2021/10/28 22:35:20;;;;;;;4.72;2.80;;;;;;;;;;4916395;29;20595;-74
2021/10/28 22:37:59;;;;;;;4.03;2.97;;;;;;;;;;4916616;29;20055;-74
2021/10/28 22:40:41;;;;;;;6.82;2.67;;;;;;;;;;4932257;29;20047;-76
2021/10/28 22:43:10;;;;;;;5.38;2.70;;;;;;;;;;4932031;29;20056;-74
2021/10/28 22:45:40;;;;;;;5.45;3.30;;;;;;;;;;4931993;29;20070;-73
2021/10/28 22:48:08;;;;;;;7.00;3.10;;;;;;;;;;4932180;29;20054;-76
2021/10/28 22:50:37;;;;;;;4.57;2.83;;;;;;;;;;4932254;29;20126;-74
2021/10/28 22:53:06;;;;;;;6.93;3.30;;;;;;;;;;4932012;29;20161;-74
2021/10/28 22:55:38;;;;;;;4.43;3.40;;;;;;;;;;4940565;28;20058;-76
2021/10/28 23:21:40;;;;;;;5.82;3.33;;;;;;;;;;4991444;28;20054;-74
2021/10/28 23:24:09;;;;;;;6.10;3.33;;;;;;;;;;4973729;28;20145;-77
2021/10/28 23:26:36;;;;;;;5.88;3.13;;;;;;;;;;4991272;28;20038;-73
2021/10/28 23:29:04;;;;;;;5.13;3.20;;;;;;;;;;4978143;28;20050;-76
2021/10/28 23:31:33;;;;;;;7.20;3.40;;;;;;;;;;4974166;28;20428;-74
2021/10/28 23:34:01;;;;;;;5.55;3.80;;;;;;;;;;4973656;28;20042;-73
2021/10/28 23:36:30;;;;;;;5.00;3.45;;;;;;;;;;4956715;28;20050;-74
2021/10/28 23:38:57;;;;;;;7.15;3.38;;;;;;;;;;4974219;28;20069;-75
2021/10/28 23:41:26;;;;;;;8.63;3.55;;;;;;;;;;4973916;28;20398;-73
2021/10/28 23:43:53;;;;;;;5.82;3.13;;;;;;;;;;4974947;28;20130;-73
2021/10/28 23:46:21;;;;;;;6.38;3.45;;;;;;;;;;4993958;28;20093;-76
2021/10/28 23:48:49;;;;;;;7.30;3.70;;;;;;;;;;4993250;28;20060;-74
2021/10/28 23:51:17;;;;;;;4.10;3.28;;;;;;;;;;4976119;28;20038;-75
2021/10/28 23:53:44;;;;;;;6.05;3.45;;;;;;;;;;4993288;28;20034;-75
2021/10/28 23:56:12;;;;;;;4.22;3.20;;;;;;;;;;4993297;28;20053;-76
2021/10/28 23:58:40;;;;;;;7.05;3.50;;;;;;;;;;4960684;28;20039;-74
